Time;durP1;ratioP1;P1;durP2;ratioP2;P2;SDS_P1;SDS_P2;PMS_P1;PMS_P2;Temp;Humidity;BMP_temperature;BMP_pressure;BME280_temperature;BME280_humidity;BME280_pressure;Samples;Min_cycle;Max_cycle;Signal;HPM_P1;HPM_P2
2023/09/11 00:00:15;;;;;;;;;;;;;;;25.84;46.87;101328.44;4963123;28;125421;-76
2023/09/11 00:02:41;;;;;;;;;;;;;;;25.81;46.80;101319.75;4963575;28;113309;-76
2023/09/11 00:05:09;;;;;;;;;;;;;;;25.76;47.02;101325.63;4967573;28;114618;-75
2023/09/11 00:07:36;;;;;;;;;;;;;;;25.74;46.75;101311.38;4957022;28;125644;-76
2023/09/11 00:10:03;;;;;;;;;;;;;;;25.71;46.63;101314.44;4966859;28;124334;-76
2023/09/11 00:12:31;;;;;;;;;;;;;;;25.69;46.99;101318.28;4971120;28;114357;-76
2023/09/11 00:14:58;;;;;;;;;;;;;;;25.65;46.79;101317.75;4972896;28;114128;-76
2023/09/11 00:17:25;;;;;;;;;;;;;;;25.64;46.88;101310.63;4969477;28;124401;-76
2023/09/11 00:19:52;;;;;;;;;;;;;;;25.63;46.92;101308.91;4964933;28;121998;-76
2023/09/11 00:22:19;;;;;;;;;;;;;;;25.60;47.09;101304.66;4964751;28;115489;-76
2023/09/11 00:24:46;;;;;;;;;;;;;;;25.58;47.00;101305.81;4970665;28;115748;-76
2023/09/11 00:27:13;;;;;;;;;;;;;;;25.56;47.24;101305.09;4966432;28;124054;-76
2023/09/11 00:29:40;;;;;;;;;;;;;;;25.54;46.89;101301.72;4960101;28;123800;-76
2023/09/11 00:32:07;;;;;;;;;;;;;;;25.53;47.26;101308.16;4970251;28;114247;-76
2023/09/11 00:34:34;;;;;;;;;;;;;;;25.51;46.95;101310.19;4970550;28;113901;-76
2023/09/11 00:37:01;;;;;;;;;;;;;;;25.49;47.12;101301.34;4965186;28;124148;-76
2023/09/11 00:39:28;;;;;;;;;;;;;;;25.45;47.26;101301.66;4970461;28;124028;-76
2023/09/11 00:41:54;;;;;;;;;;;;;;;25.43;47.19;101298.25;4970779;28;114644;-76
2023/09/11 00:44:22;;;;;;;;;;;;;;;25.41;47.20;101300.25;4966914;28;113687;-76
2023/09/11 00:46:49;;;;;;;;;;;;;;;25.40;47.29;101301.25;4964940;28;123459;-76
2023/09/11 00:49:17;;;;;;;;;;;;;;;25.39;47.41;101302.28;4966654;28;124296;-76
2023/09/11 00:51:44;;;;;;;;;;;;;;;25.36;47.37;101297.16;4976885;28;114835;-76
2023/09/11 00:54:12;;;;;;;;;;;;;;;25.36;47.38;101291.72;4964025;28;114467;-76
2023/09/11 00:56:39;;;;;;;;;;;;;;;25.35;47.44;101297.28;4961703;28;125105;-76
2023/09/11 00:59:06;;;;;;;;;;;;;;;25.32;47.34;101284.91;4964191;28;123970;-76
2023/09/11 01:01:33;;;;;;;;;;;;;;;25.30;47.53;101286.06;4964864;28;113170;-76
2023/09/11 01:04:00;;;;;;;;;;;;;;;25.25;47.36;101284.66;4965031;28;113311;-76
2023/09/11 01:06:27;;;;;;;;;;;;;;;25.22;47.54;101278.66;4966372;28;124116;-75
2023/09/11 01:08:55;;;;;;;;;;;;;;;25.19;47.33;101279.00;4966586;28;124475;-76
2023/09/11 01:11:22;;;;;;;;;;;;;;;25.15;47.63;101283.03;4963743;28;116386;-76
2023/09/11 01:13:50;;;;;;;;;;;;;;;25.14;47.43;101286.72;4961599;28;115898;-76
2023/09/11 01:16:20;;;;;;;;;;;;;;;25.12;47.39;101283.31;4965428;28;124224;-76
2023/09/11 01:18:50;;;;;;;;;;;;;;;25.11;47.46;101287.03;4957272;28;126330;-76
2023/09/11 01:21:19;;;;;;;;;;;;;;;25.10;47.73;101279.91;4945015;28;114381;-76
2023/09/11 01:24:06;;;;;;;;;;;;;;;25.07;47.72;101286.47;4966312;28;114498;-75
2023/09/11 01:26:45;;;;;;;;;;;;;;;25.05;47.69;101277.66;4965177;28;123524;-76
2023/09/11 01:29:15;;;;;;;;;;;;;;;25.05;47.64;101277.66;4965152;28;125025;-76
2023/09/11 01:31:43;;;;;;;;;;;;;;;25.04;47.49;101275.97;4965399;28;115464;-76
2023/09/11 01:34:11;;;;;;;;;;;;;;;25.02;47.56;101281.53;4966439;28;114317;-76
2023/09/11 01:36:38;;;;;;;;;;;;;;;25.00;47.74;101280.81;4962765;28;125072;-76
2023/09/11 01:39:06;;;;;;;;;;;;;;;24.97;47.82;101281.13;4959782;28;125089;-76
2023/09/11 01:41:39;;;;;;;;;;;;;;;24.95;47.60;101288.56;4955850;28;114230;-76
2023/09/11 01:44:14;;;;;;;;;;;;;;;24.93;47.92;101281.59;4949671;28;113788;-76
2023/09/11 01:46:44;;;;;;;;;;;;;;;24.90;47.86;101280.03;4946723;28;123220;-76
2023/09/11 01:49:12;;;;;;;;;;;;;;;24.88;47.99;101282.03;4965899;28;124448;-76
2023/09/11 01:51:40;;;;;;;;;;;;;;;24.85;47.77;101283.19;4969175;28;113323;-76
2023/09/11 01:54:08;;;;;;;;;;;;;;;24.84;47.74;101277.94;4957165;28;115256;-76
2023/09/11 01:56:35;;;;;;;;;;;;;;;24.82;47.82;101271.81;4964735;28;123985;-76
2023/09/11 01:59:02;;;;;;;;;;;;;;;24.81;47.89;101270.13;4978482;28;125591;-76
2023/09/11 02:01:29;;;;;;;;;;;;;;;24.80;48.10;101273.81;4961316;28;115196;-76
2023/09/11 02:03:56;;;;;;;;;;;;;;;24.80;47.90;101268.41;4965161;28;114051;-76
2023/09/11 02:06:23;;;;;;;;;;;;;;;24.79;48.25;101266.69;4950551;28;123559;-76
2023/09/11 02:08:50;;;;;;;;;;;;;;;24.78;48.11;101273.13;4963865;28;123951;-76
2023/09/11 02:11:18;;;;;;;;;;;;;;;24.77;48.11;101268.69;4966051;28;114484;-76
2023/09/11 02:13:45;;;;;;;;;;;;;;;24.77;47.93;101276.81;4966260;28;113516;-76
2023/09/11 02:16:13;;;;;;;;;;;;;;;24.76;48.03;101277.84;4948380;28;125163;-76
2023/09/11 02:18:40;;;;;;;;;;;;;;;24.76;48.28;101267.00;4965696;28;124233;-76
2023/09/11 02:21:08;;;;;;;;;;;;;;;24.74;48.29;101266.31;4964468;28;114940;-76
2023/09/11 02:23:35;;;;;;;;;;;;;;;24.73;48.02;101261.88;4965636;28;114732;-75
2023/09/11 02:26:02;;;;;;;;;;;;;;;24.72;48.24;101260.19;4966695;28;125813;-77
2023/09/11 02:28:31;;;;;;;;;;;;;;;24.71;48.03;101258.47;4968664;28;125471;-77
2023/09/11 02:30:58;;;;;;;;;;;;;;;24.68;48.04;101255.06;4964927;28;114204;-77
2023/09/11 02:33:25;;;;;;;;;;;;;;;24.68;48.26;101255.06;4966643;28;115618;-76
2023/09/11 02:35:53;;;;;;;;;;;;;;;24.66;48.31;101251.66;4964670;28;124866;-76
2023/09/11 02:38:20;;;;;;;;;;;;;;;24.65;48.22;101260.78;4964679;28;123780;-76
2023/09/11 02:40:47;;;;;;;;;;;;;;;24.63;48.37;101254.66;4964413;28;114822;-76
2023/09/11 02:43:33;;;;;;;;;;;;;;;24.61;48.33;101258.53;4965017;28;114411;-76
2023/09/11 02:45:59;;;;;;;;;;;;;;;24.58;48.44;101253.41;4966450;28;124265;-76
2023/09/11 02:48:27;;;;;;;;;;;;;;;24.54;48.18;101252.84;4964413;28;123037;-76
2023/09/11 02:50:54;;;;;;;;;;;;;;;24.50;48.32;101246.00;4964277;28;115598;-76
2023/09/11 02:53:21;;;;;;;;;;;;;;;24.48;48.41;101248.00;4954185;28;113878;-76
2023/09/11 02:55:49;;;;;;;;;;;;;;;24.46;48.59;101250.03;4956154;28;123522;-77
2023/09/11 02:58:16;;;;;;;;;;;;;;;24.42;48.41;101246.75;4963700;28;124345;-76
2023/09/11 03:00:43;;;;;;;;;;;;;;;24.38;48.54;101247.22;4960578;28;114539;-76
2023/09/11 03:03:10;;;;;;;;;;;;;;;24.35;48.45;101248.34;4964298;28;113562;-76
2023/09/11 03:05:37;;;;;;;;;;;;;;;24.33;48.32;101244.09;4961199;28;122141;-76
2023/09/11 03:08:06;;;;;;;;;;;;;;;24.32;48.51;101236.97;4964554;28;122864;-76
2023/09/11 03:10:33;;;;;;;;;;;;;;;24.28;48.50;101237.28;4958619;28;115981;-77
2023/09/11 03:13:00;;;;;;;;;;;;;;;24.25;48.53;101231.31;4962341;28;114410;-77
2023/09/11 03:15:28;;;;;;;;;;;;;;;24.23;48.54;101228.75;4967929;28;123167;-76
2023/09/11 03:17:56;;;;;;;;;;;;;;;24.20;48.46;101229.03;4959872;28;123865;-77
2023/09/11 03:20:23;;;;;;;;;;;;;;;24.16;48.44;101227.63;4967428;28;114844;-76
2023/09/11 03:22:50;;;;;;;;;;;;;;;24.14;48.39;101224.22;4970896;28;115352;-76
2023/09/11 03:25:17;;;;;;;;;;;;;;;24.11;48.60;101221.84;4964928;28;125068;-76
2023/09/11 03:27:44;;;;;;;;;;;;;;;24.08;48.77;101219.41;4968562;28;125169;-77
2023/09/11 03:30:12;;;;;;;;;;;;;;;24.06;48.77;101222.25;4963848;28;113643;-76
2023/09/11 03:32:40;;;;;;;;;;;;;;;24.04;48.68;101223.41;4965258;28;99749;-76
2023/09/11 03:35:08;;;;;;;;;;;;;;;24.01;48.77;101218.28;4982669;28;123487;-76
2023/09/11 03:37:35;;;;;;;;;;;;;;;23.98;48.66;101214.03;4967282;28;123287;-76
2023/09/11 03:40:13;;;;;;;;;;;;;;;23.97;48.64;101216.88;4950608;28;116549;-77
2023/09/11 03:42:41;;;;;;;;;;;;;;;23.95;48.80;101202.66;4966595;28;114330;-77
2023/09/11 03:45:08;;;;;;;;;;;;;;;23.94;49.05;101207.22;4978608;28;126057;-76
2023/09/11 03:47:35;;;;;;;;;;;;;;;23.94;49.00;101212.63;4967073;28;123669;-76
2023/09/11 03:50:04;;;;;;;;;;;;;;;23.94;48.90;101212.63;4956010;28;114482;-76
2023/09/11 03:52:31;;;;;;;;;;;;;;;23.93;48.90;101210.06;4964874;28;115544;-76
2023/09/11 03:54:58;;;;;;;;;;;;;;;23.93;48.89;101215.47;4967797;28;123611;-76
2023/09/11 03:57:25;;;;;;;;;;;;;;;23.90;48.99;101206.66;4969569;28;123881;-76
2023/09/11 03:59:52;;;;;;;;;;;;;;;23.89;48.98;101199.53;4967370;28;114214;-76
2023/09/11 04:02:19;;;;;;;;;;;;;;;23.87;49.22;101189.88;4965060;28;115369;-76
2023/09/11 04:04:46;;;;;;;;;;;;;;;23.84;49.13;101191.00;4966118;28;125854;-76
2023/09/11 04:07:13;;;;;;;;;;;;;;;23.82;49.15;101193.00;4955546;28;123740;-76
2023/09/11 04:09:40;;;;;;;;;;;;;;;23.82;49.12;101182.19;4968328;28;113966;-76
2023/09/11 04:12:08;;;;;;;;;;;;;;;23.81;49.27;101185.91;4962890;28;115164;-77
2023/09/11 04:14:37;;;;;;;;;;;;;;;23.80;49.01;101186.88;4968382;28;123703;-77
2023/09/11 04:17:04;;;;;;;;;;;;;;;23.77;49.06;101184.47;4967909;28;124252;-77
2023/09/11 04:19:31;;;;;;;;;;;;;;;23.75;49.24;101186.44;4965348;28;114631;-77
2023/09/11 04:21:58;;;;;;;;;;;;;;;23.71;49.20;101180.50;4967112;28;113097;-77
2023/09/11 04:24:26;;;;;;;;;;;;;;;23.67;49.25;101184.47;4968138;28;123159;-77
2023/09/11 04:26:53;;;;;;;;;;;;;;;23.65;49.16;101185.63;4963894;28;125229;-77
2023/09/11 04:29:21;;;;;;;;;;;;;;;23.61;49.28;101179.66;4970724;28;114604;-78
2023/09/11 04:31:48;;;;;;;;;;;;;;;23.58;49.34;101182.63;4954690;28;115965;-78
2023/09/11 04:34:16;;;;;;;;;;;;;;;23.57;49.25;101177.41;4967109;28;125416;-77
2023/09/11 04:36:43;;;;;;;;;;;;;;;23.56;49.24;101175.69;4968562;28;123596;-77
2023/09/11 04:39:12;;;;;;;;;;;;;;;23.54;49.39;101172.28;4962964;28;115039;-77
2023/09/11 04:41:40;;;;;;;;;;;;;;;23.50;49.33;101169.84;4953603;28;114686;-77
2023/09/11 04:44:08;;;;;;;;;;;;;;;23.48;49.44;101168.28;4964202;28;123395;-77
2023/09/11 04:46:35;;;;;;;;;;;;;;;23.45;49.37;101169.44;4966083;28;124156;-77
2023/09/11 04:49:02;;;;;;;;;;;;;;;23.42;49.43;101164.31;4955424;28;113738;-77
2023/09/11 04:51:29;;;;;;;;;;;;;;;23.40;49.49;101163.63;4966362;28;113023;-77
2023/09/11 04:53:56;;;;;;;;;;;;;;;23.38;49.47;101171.03;4964834;28;123281;-77
2023/09/11 04:56:23;;;;;;;;;;;;;;;23.36;49.40;101175.72;4950386;28;124874;-77
2023/09/11 04:58:51;;;;;;;;;;;;;;;23.33;49.47;101176.00;4965473;28;114216;-77
2023/09/11 05:01:19;;;;;;;;;;;;;;;23.31;49.43;101178.00;4946260;28;112668;-77
2023/09/11 05:03:48;;;;;;;;;;;;;;;23.30;49.65;101170.88;4964257;28;125691;-77
2023/09/11 05:06:15;;;;;;;;;;;;;;;23.28;49.52;101183.69;4946825;28;124650;-77
2023/09/11 05:08:42;;;;;;;;;;;;;;;23.28;49.65;101178.28;4969083;28;114433;-77
2023/09/11 05:11:30;;;;;;;;;;;;;;;23.27;49.75;101182.00;4983922;28;113891;-77
2023/09/11 05:13:57;;;;;;;;;;;;;;;23.27;49.78;101184.69;4965504;28;125096;-77
2023/09/11 05:16:24;;;;;;;;;;;;;;;23.27;49.64;101176.59;4964279;28;124267;-77
2023/09/11 05:18:51;;;;;;;;;;;;;;;23.27;49.78;101187.41;4965303;28;115439;-77
2023/09/11 05:21:18;;;;;;;;;;;;;;;23.26;49.83;101185.69;4950012;28;115499;-77
2023/09/11 05:23:45;;;;;;;;;;;;;;;23.27;49.47;101182.00;4965401;28;124068;-77
2023/09/11 05:26:12;;;;;;;;;;;;;;;23.26;49.70;101174.88;4967144;28;124997;-77
2023/09/11 05:28:39;;;;;;;;;;;;;;;23.26;49.90;101180.28;4966848;28;113862;-77
2023/09/11 05:31:07;;;;;;;;;;;;;;;23.25;49.95;101184.00;4961684;28;113895;-78
2023/09/11 05:33:34;;;;;;;;;;;;;;;23.25;49.93;101184.00;4962707;28;124346;-78
2023/09/11 05:36:02;;;;;;;;;;;;;;;23.24;49.88;101182.25;4965029;28;123815;-77
2023/09/11 05:38:29;;;;;;;;;;;;;;;23.25;49.96;101189.41;4965747;28;115187;-77
2023/09/11 05:40:56;;;;;;;;;;;;;;;23.27;49.96;101187.41;4968768;28;114320;-78
2023/09/11 05:43:23;;;;;;;;;;;;;;;23.27;49.96;101190.09;4964399;28;124048;-77
2023/09/11 05:45:50;;;;;;;;;;;;;;;23.28;50.02;101187.25;4966272;28;124775;-77
2023/09/11 05:48:17;;;;;;;;;;;;;;;23.29;49.94;101191.66;4963461;28;113277;-77
2023/09/11 05:50:44;;;;;;;;;;;;;;;23.29;49.97;101188.09;4963073;28;113876;-77
2023/09/11 05:53:11;;;;;;;;;;;;;;;23.29;50.18;101190.81;4963241;28;123930;-77
2023/09/11 05:55:38;;;;;;;;;;;;;;;23.30;50.20;101198.78;4967452;28;123409;-77
2023/09/11 05:58:05;;;;;;;;;;;;;;;23.32;50.21;101190.53;4963365;28;114551;-77
2023/09/11 06:00:32;;;;;;;;;;;;;;;23.35;50.22;101195.63;4962136;28;114610;-77
2023/09/11 06:02:59;;;;;;;;;;;;;;;23.39;50.15;101202.44;4967745;28;124951;-77
2023/09/11 06:05:26;;;;;;;;;;;;;;;23.42;50.18;101191.34;4966700;28;124252;-77
2023/09/11 06:07:53;;;;;;;;;;;;;;;23.45;50.09;101191.06;4962364;28;115410;-77
2023/09/11 06:10:20;;;;;;;;;;;;;;;23.50;50.31;101202.28;4967772;28;115985;-77
2023/09/11 06:12:47;;;;;;;;;;;;;;;23.54;50.38;101196.59;4948406;28;123592;-76
2023/09/11 06:15:15;;;;;;;;;;;;;;;23.60;50.26;101196.00;4963001;28;125173;-77
2023/09/11 06:17:42;;;;;;;;;;;;;;;23.65;50.51;101199.16;4956089;28;113320;-77
2023/09/11 06:20:13;;;;;;;;;;;;;;;23.72;50.44;101197.56;4965659;28;113728;-77
2023/09/11 06:22:43;;;;;;;;;;;;;;;23.78;50.40;101202.38;4975504;28;123792;-77
2023/09/11 06:25:10;;;;;;;;;;;;;;;23.84;50.45;101204.53;4958410;28;124202;-77
2023/09/11 06:27:37;;;;;;;;;;;;;;;23.93;50.45;101207.38;4963809;28;114376;-77
2023/09/11 06:30:07;;;;;;;;;;;;;;;24.01;50.50;101202.06;4968938;28;114275;-77
2023/09/11 06:32:34;;;;;;;;;;;;;;;24.11;50.51;101202.88;4964030;28;125332;-76
2023/09/11 06:35:04;;;;;;;;;;;;;;;24.20;50.56;101207.38;4963057;28;124448;-77
2023/09/11 06:37:31;;;;;;;;;;;;;;;24.32;50.48;101204.47;4964487;28;115132;-77
2023/09/11 06:39:58;;;;;;;;;;;;;;;24.41;50.44;101203.56;4965191;28;113709;-77
2023/09/11 06:42:25;;;;;;;;;;;;;;;24.51;50.53;101211.69;4963809;28;124227;-76
2023/09/11 06:44:53;;;;;;;;;;;;;;;24.60;50.39;101219.78;4968517;28;124730;-76
2023/09/11 06:47:20;;;;;;;;;;;;;;;24.70;50.46;101218.84;4962002;28;114396;-77
2023/09/11 06:49:47;;;;;;;;;;;;;;;24.81;50.53;101221.34;4966535;28;113365;-77
2023/09/11 06:52:16;;;;;;;;;;;;;;;24.91;50.63;101221.28;4960392;28;124140;-77
2023/09/11 06:54:43;;;;;;;;;;;;;;;25.01;50.37;101217.47;4948934;28;123285;-76
2023/09/11 06:57:10;;;;;;;;;;;;;;;25.11;50.14;101216.53;4952124;28;115941;-77
2023/09/11 06:59:37;;;;;;;;;;;;;;;25.20;50.37;101204.78;4950963;28;114331;-77
2023/09/11 07:02:04;;;;;;;;;;;;;;;25.32;50.24;101214.41;4961201;28;126491;-77
2023/09/11 07:04:31;;;;;;;;;;;;;;;25.44;50.41;101207.72;4964054;28;123997;-77
2023/09/11 07:06:58;;;;;;;;;;;;;;;25.58;50.67;101197.31;4972076;28;115038;-77
2023/09/11 07:09:25;;;;;;;;;;;;;;;25.72;50.34;101199.44;4972383;28;113712;-76
2023/09/11 07:11:52;;;;;;;;;;;;;;;25.85;50.51;101204.44;4969989;28;123447;-76
2023/09/11 07:14:20;;;;;;;;;;;;;;;25.97;50.37;101202.34;4970892;28;124401;-76
2023/09/11 07:16:47;;;;;;;;;;;;;;;26.10;50.23;101196.47;4971037;28;114240;-76
2023/09/11 07:19:15;;;;;;;;;;;;;;;26.19;50.09;101196.34;4971843;28;114037;-76
2023/09/11 07:21:44;;;;;;;;;;;;;;;26.29;50.32;101200.78;4971126;28;124820;-77
2023/09/11 07:24:11;;;;;;;;;;;;;;;26.40;50.06;101195.06;4969934;28;125286;-77
2023/09/11 07:26:39;;;;;;;;;;;;;;;26.54;50.18;101199.00;4972506;28;114817;-77
2023/09/11 07:29:06;;;;;;;;;;;;;;;26.65;50.00;101206.88;4970316;28;114926;-77
2023/09/11 07:31:33;;;;;;;;;;;;;;;26.74;49.88;101199.59;4971223;28;124168;-77
2023/09/11 07:34:01;;;;;;;;;;;;;;;26.84;50.01;101199.47;4972482;28;123710;-77
2023/09/11 07:36:29;;;;;;;;;;;;;;;26.92;49.79;101192.19;4966226;28;114941;-77
2023/09/11 07:38:56;;;;;;;;;;;;;;;26.99;49.74;101193.22;4968591;28;115495;-76
2023/09/11 07:41:23;;;;;;;;;;;;;;;27.08;49.76;101196.75;4971578;28;125120;-76
2023/09/11 07:43:50;;;;;;;;;;;;;;;27.18;50.06;101199.31;4971987;28;124197;-76
2023/09/11 07:46:19;;;;;;;;;;;;;;;27.31;50.16;101207.00;4970422;28;115441;-76
2023/09/11 07:48:46;;;;;;;;;;;;;;;27.42;50.10;101203.09;4954586;28;114658;-76
2023/09/11 07:51:13;;;;;;;;;;;;;;;27.49;49.75;101206.84;4972380;28;124650;-76
2023/09/11 07:53:40;;;;;;;;;;;;;;;27.51;49.77;101207.50;4972464;28;124923;-76
2023/09/11 07:56:08;;;;;;;;;;;;;;;27.53;49.47;101205.47;4970485;28;113282;-77
2023/09/11 07:58:36;;;;;;;;;;;;;;;27.56;49.74;101199.69;4972201;28;113902;-76
2023/09/11 08:01:03;;;;;;;;;;;;;;;27.63;49.59;101199.84;4973393;28;124343;-77
2023/09/11 08:03:34;;;;;;;;;;;;;;;27.72;49.64;101205.09;4985013;28;125143;-76
2023/09/11 08:06:04;;;;;;;;;;;;;;;27.82;49.87;101199.47;4958295;28;114101;-77
2023/09/11 08:08:31;;;;;;;;;;;;;;;27.92;49.87;101202.03;4972071;28;112261;-76
2023/09/11 08:10:58;;;;;;;;;;;;;;;28.02;49.62;101199.94;4978009;28;125654;-76
2023/09/11 08:13:25;;;;;;;;;;;;;;;28.13;49.66;101207.75;4976292;28;123781;-76
2023/09/11 08:15:52;;;;;;;;;;;;;;;28.27;49.59;101208.03;4967627;28;114056;-76
2023/09/11 08:18:19;;;;;;;;;;;;;;;28.36;49.42;101206.97;4969635;28;113729;-77
2023/09/11 08:20:46;;;;;;;;;;;;;;;28.46;49.46;101206.75;4958889;28;124010;-76
2023/09/11 08:23:13;;;;;;;;;;;;;;;28.53;49.51;101219.50;4968670;28;123314;-77
2023/09/11 08:25:40;;;;;;;;;;;;;;;28.59;49.41;101217.94;4970037;28;114792;-76
2023/09/11 08:28:07;;;;;;;;;;;;;;;28.65;49.46;101210.94;4964434;28;112752;-77
2023/09/11 08:30:35;;;;;;;;;;;;;;;28.73;49.38;101219.09;4971038;28;124786;-77
2023/09/11 08:33:04;;;;;;;;;;;;;;;28.85;49.41;101223.09;4970420;28;125103;-76
2023/09/11 08:35:31;;;;;;;;;;;;;;;28.97;49.35;101228.13;4971788;28;115676;-76
2023/09/11 08:37:58;;;;;;;;;;;;;;;29.04;49.18;101226.38;4971980;28;115524;-76
2023/09/11 08:40:28;;;;;;;;;;;;;;;29.10;48.92;101231.97;4966457;28;124410;-77
2023/09/11 08:42:55;;;;;;;;;;;;;;;29.16;48.99;101233.16;4967909;28;123897;-77
2023/09/11 08:45:23;;;;;;;;;;;;;;;29.18;49.10;101233.81;4957880;28;114329;-76
2023/09/11 08:47:50;;;;;;;;;;;;;;;29.24;48.97;101226.78;4968782;28;113888;-76
2023/09/11 08:50:20;;;;;;;;;;;;;;;29.30;48.91;101231.50;4959053;28;124392;-76
2023/09/11 08:52:48;;;;;;;;;;;;;;;29.36;49.13;101219.00;4971363;28;124131;-76
2023/09/11 08:55:19;;;;;;;;;;;;;;;29.43;48.92;101218.06;4969564;28;114700;-76
2023/09/11 08:57:46;;;;;;;;;;;;;;;29.51;48.94;101217.16;4971720;28;114980;-76
2023/09/11 09:00:14;;;;;;;;;;;;;;;29.54;48.83;101222.25;4973000;28;123915;-76
2023/09/11 09:02:42;;;;;;;;;;;;;;;29.59;48.79;101225.28;4970041;28;124362;-76
2023/09/11 09:05:10;;;;;;;;;;;;;;;29.67;48.98;101227.94;4973540;28;114423;-76
2023/09/11 09:07:37;;;;;;;;;;;;;;;29.74;48.86;101228.03;4968691;28;112816;-76
2023/09/11 09:10:05;;;;;;;;;;;;;;;29.80;48.78;101227.31;4967787;28;124329;-76
2023/09/11 09:12:33;;;;;;;;;;;;;;;29.87;48.68;101227.41;4966557;28;124338;-77
2023/09/11 09:15:00;;;;;;;;;;;;;;;29.93;48.66;101232.09;4962563;28;113879;-77
2023/09/11 09:17:27;;;;;;;;;;;;;;;30.00;48.75;101227.59;4967176;28;113467;-76
2023/09/11 09:19:54;;;;;;;;;;;;;;;30.08;48.88;101224.78;4956223;28;124247;-77
2023/09/11 09:22:21;;;;;;;;;;;;;;;30.17;48.70;101228.25;4969510;28;123094;-77
2023/09/11 09:24:52;;;;;;;;;;;;;;;30.27;48.72;101227.97;4953959;28;114588;-78
2023/09/11 09:27:28;;;;;;;;;;;;;;;30.35;48.49;101236.13;4951112;28;114277;-77
2023/09/11 09:29:55;;;;;;;;;;;;;;;30.44;48.49;101234.97;4947900;28;125691;-77
2023/09/11 09:32:22;;;;;;;;;;;;;;;30.47;48.30;101223.63;4956905;28;123658;-77
2023/09/11 09:34:52;;;;;;;;;;;;;;;30.51;48.22;101217.81;4960632;28;114024;-76
2023/09/11 09:37:20;;;;;;;;;;;;;;;30.55;48.49;101216.38;4965622;28;113847;-77
2023/09/11 09:39:50;;;;;;;;;;;;;;;30.62;48.48;101215.41;4965647;28;124431;-77
2023/09/11 09:42:18;;;;;;;;;;;;;;;30.72;48.28;101209.63;4965310;28;125517;-76
2023/09/11 09:44:47;;;;;;;;;;;;;;;30.78;48.18;101214.34;4970272;28;114249;-77
2023/09/11 09:47:17;;;;;;;;;;;;;;;30.88;48.19;101213.19;4965362;28;114502;-76
2023/09/11 09:49:49;;;;;;;;;;;;;;;30.97;48.45;101207.41;4968766;28;125678;-76
2023/09/11 09:52:18;;;;;;;;;;;;;;;31.08;48.31;101208.78;4967485;28;124897;-77
2023/09/11 09:54:49;;;;;;;;;;;;;;;31.15;47.91;101220.63;4969781;28;114269;-76
2023/09/11 09:57:17;;;;;;;;;;;;;;;31.22;47.92;101210.59;4968989;28;113626;-76
2023/09/11 09:59:49;;;;;;;;;;;;;;;31.29;47.97;101215.28;4963424;28;124198;-76
2023/09/11 10:02:23;;;;;;;;;;;;;;;31.35;48.17;101215.34;4962451;28;124158;-76
2023/09/11 10:04:51;;;;;;;;;;;;;;;31.43;47.96;101217.09;4966066;28;114371;-76
2023/09/11 10:07:34;;;;;;;;;;;;;;;31.50;48.05;101212.56;4964994;28;113835;-77
2023/09/11 10:10:21;;;;;;;;;;;;;;;31.57;47.72;101205.25;4963955;28;125416;-76
2023/09/11 10:13:04;;;;;;;;;;;;;;;31.67;47.67;101213.09;4966005;28;123918;-77
2023/09/11 10:15:31;;;;;;;;;;;;;;;31.73;47.86;101211.47;4960896;28;115738;-76
2023/09/11 10:17:59;;;;;;;;;;;;;;;31.78;47.42;101206.22;4965607;28;115098;-76
2023/09/11 10:20:27;;;;;;;;;;;;;;;31.79;47.56;101205.16;4967121;28;123924;-76
2023/09/11 10:22:55;;;;;;;;;;;;;;;31.81;47.58;101203.91;4969997;28;124057;-76
2023/09/11 10:25:23;;;;;;;;;;;;;;;31.85;47.46;101209.00;4955244;28;114661;-76
2023/09/11 10:27:52;;;;;;;;;;;;;;;31.89;47.31;101200.19;4966177;28;112716;-76
2023/09/11 10:30:21;;;;;;;;;;;;;;;31.95;47.63;101196.63;4969784;28;125114;-76
2023/09/11 10:32:57;;;;;;;;;;;;;;;31.98;47.46;101198.94;4952664;28;123370;-76
2023/09/11 10:35:27;;;;;;;;;;;;;;;32.00;47.40;101202.38;4960603;28;114435;-76
2023/09/11 10:37:56;;;;;;;;;;;;;;;32.01;47.31;101198.56;4963079;28;113033;-76
2023/09/11 10:40:27;;;;;;;;;;;;;;;32.05;47.41;101196.28;4966188;28;124896;-77
2023/09/11 10:42:54;;;;;;;;;;;;;;;32.10;47.29;101202.03;4966373;28;124329;-76
2023/09/11 10:45:24;;;;;;;;;;;;;;;32.15;46.92;101198.66;4964539;28;114519;-75
2023/09/11 10:47:51;;;;;;;;;;;;;;;32.19;46.90;101199.94;4966830;28;114548;-77
2023/09/11 10:50:18;;;;;;;;;;;;;;;32.27;46.81;101197.03;4966909;28;124423;-76
2023/09/11 10:52:46;;;;;;;;;;;;;;;32.30;47.05;101193.88;4964094;28;123897;-76
2023/09/11 10:55:15;;;;;;;;;;;;;;;32.32;46.78;101188.19;4967629;28;115803;-76
2023/09/11 10:57:43;;;;;;;;;;;;;;;32.36;46.75;101194.94;4968668;28;113923;-76
2023/09/11 11:00:10;;;;;;;;;;;;;;;32.43;46.90;101189.50;4963298;28;124268;-76
2023/09/11 11:02:37;;;;;;;;;;;;;;;32.51;46.74;101195.66;4972985;28;124733;-77
2023/09/11 11:05:05;;;;;;;;;;;;;;;32.57;46.59;101191.28;4970399;28;114521;-77
2023/09/11 11:07:32;;;;;;;;;;;;;;;32.61;46.94;101192.56;4963056;28;114309;-76
2023/09/11 11:10:01;;;;;;;;;;;;;;;32.65;46.50;101187.50;4961397;28;123945;-77
2023/09/11 11:12:32;;;;;;;;;;;;;;;32.70;46.44;101185.84;4965970;28;124638;-76
2023/09/11 11:15:19;;;;;;;;;;;;;;;32.72;46.76;101172.75;4960610;28;115672;-76
2023/09/11 11:17:46;;;;;;;;;;;;;;;32.74;46.25;101184.38;4966298;28;113882;-76
2023/09/11 11:20:16;;;;;;;;;;;;;;;32.75;46.52;101183.28;4961492;28;124129;-76
2023/09/11 11:22:43;;;;;;;;;;;;;;;32.77;46.55;101189.41;4969268;28;125000;-76
2023/09/11 11:25:10;;;;;;;;;;;;;;;32.73;46.29;101190.88;4964762;28;114784;-76
2023/09/11 11:27:38;;;;;;;;;;;;;;;32.72;46.49;101189.22;4960702;28;113529;-76
2023/09/11 11:30:05;;;;;;;;;;;;;;;32.74;46.53;101187.09;4964369;28;124466;-76
2023/09/11 11:32:33;;;;;;;;;;;;;;;32.78;46.28;101177.41;4963796;28;124875;-76
2023/09/11 11:35:02;;;;;;;;;;;;;;;32.87;46.29;101185.44;4964415;28;114264;-76
2023/09/11 11:37:30;;;;;;;;;;;;;;;32.94;46.08;101186.28;4968458;28;114515;-76
2023/09/11 11:39:59;;;;;;;;;;;;;;;32.99;46.31;101178.28;4965173;28;124441;-76
2023/09/11 11:42:26;;;;;;;;;;;;;;;33.04;46.09;101181.25;4969939;28;123916;-76
2023/09/11 11:44:53;;;;;;;;;;;;;;;33.11;45.90;101187.59;4968430;28;113623;-76
2023/09/11 11:47:21;;;;;;;;;;;;;;;33.15;46.16;101177.91;4967603;28;113355;-76
2023/09/11 11:49:49;;;;;;;;;;;;;;;33.24;46.19;101185.94;4970379;28;124139;-76
2023/09/11 11:52:16;;;;;;;;;;;;;;;33.32;45.92;101182.97;4971160;28;123061;-76
2023/09/11 11:54:43;;;;;;;;;;;;;;;33.35;45.72;101177.06;4967653;28;114801;-76
2023/09/11 11:57:10;;;;;;;;;;;;;;;33.38;46.06;101181.25;4965231;28;116513;-76
2023/09/11 11:59:38;;;;;;;;;;;;;;;33.42;45.55;101177.03;4967670;28;123611;-77
2023/09/11 12:02:17;;;;;;;;;;;;;;;33.42;45.60;101183.41;4962892;28;124615;-76
2023/09/11 12:04:44;;;;;;;;;;;;;;;33.43;45.57;101174.06;4965694;28;114534;-76
2023/09/11 12:07:16;;;;;;;;;;;;;;;33.45;45.68;101182.94;4965309;28;113772;-76
2023/09/11 12:09:43;;;;;;;;;;;;;;;33.49;45.60;101173.25;4958041;28;124561;-76
2023/09/11 12:12:10;;;;;;;;;;;;;;;33.54;45.69;101181.69;4966082;28;123791;-77
2023/09/11 12:14:37;;;;;;;;;;;;;;;33.59;45.47;101177.44;4958238;28;113427;-77
2023/09/11 12:17:08;;;;;;;;;;;;;;;33.67;45.49;101185.50;4963902;28;112799;-76
2023/09/11 12:19:35;;;;;;;;;;;;;;;33.72;45.47;101193.97;4965981;28;124174;-76
2023/09/11 12:22:03;;;;;;;;;;;;;;;33.78;45.53;101182.09;4969699;28;124270;-76
2023/09/11 12:24:30;;;;;;;;;;;;;;;33.78;45.36;101187.59;4968788;28;114866;-76
2023/09/11 12:26:59;;;;;;;;;;;;;;;33.80;45.53;101185.47;4969521;28;114558;-76
2023/09/11 12:29:29;;;;;;;;;;;;;;;33.82;45.50;101183.34;4948021;28;124444;-76
2023/09/11 12:31:56;;;;;;;;;;;;;;;33.84;45.25;101175.75;4963813;28;123035;-76